Albion, Pennsylvania
Current Conditions -  °F | °C
As of 5:51 PM on Thursday 18 Dec 2014 (Local Time) from KERI Reporting Station
Overcast Overcast  
Wind Chill: 24°   Ceiling: 2500
Heat Index: 32°   Visibility: 10mi
Dew Point: 27°   Wind: 10mph
Humidity: 82%   Direction: 290°WNW
Pressure: 30.13"   Gusts: NA
Location:  41.89°N, 80.36°W
Report Text: KERI 182251Z 29009KT 10SM OVC025 00/M03 A3013 RMK AO2 SLP212 T00001028
Loading
Personal Weather Stations






























Interactive Weather Map New forecast layout! Learn more

10-Day Weather Forecast

Advertisements
Track Severe Weather on mobile